Portada
METAR-TAF:

METAR-TAF

Aeropuertos :

Siirt, Turquía

latitud: 37-58-41N, longitud: 41-50-21E, altitud: 610 m

Observación

El informe se hizo hace 29 minutos, a las 10:50 UTC
Viento 10 kt del sur-suroeste, variando entre sur y oeste-suroeste
Temperatura 40°C
Humedad 20%
Presión 1000 hPa
Visibilidad 10 km o más
Escasas nubes a una altura de 4000 ft

METAR: LTCL 191050Z 21010KT 170V250 9999 FEW040 40/13 Q1000

Hora: 14:19 (11:19 UTC)

Pronóstico

El informe se hizo hace 3 horas y 39 minutos, a las 07:40 UTC
Pronóstico válido del 19 a las 09 UTC al 19 a las 18 UTC
Viento 10 kt del oeste
Visibilidad 10 km o más
sin nubes por debajo de 1500 m y sin presencia de cumulonimbus.
Evolucionando progresivamente
del 19 a las 09 UTC al 19 a las 11 UTC
Escasas nubes a una altura de 4000 ft
Temporalmente
del 19 a las 11 UTC al 19 a las 15 UTC
Viento 12 kt del suroeste

TAF: LTCL 190740Z 1909/1918 28010KT CAVOK BECMG 1909/1911 FEW040 TEMPO 1911/1915 22012KT

Observaciones y pronósticos meteorológicos de más de 4000 aeropuertos (mensajes METAR y TAF).

Los puntos amarillos y rojos representan las estaciones disponibles.

Ponga el ratón en el punto deseado para ver el nombre de la estación.

Haga clic para ver las observaciones y los pronósticos meteorológicos.

Para cambiar el mapa : haga clic en los botones verdes con una cruz de color negro para hacer un zoom, en el botón verde con un guión para alejar o en las flechas verdes para mapas adyacentes.


METAR-TAF: